TimeCDT,TemperatureF,Dew PointF,Humidity,Sea Level PressureIn,VisibilityMPH,Wind Direction,Wind SpeedMPH,Gust SpeedMPH,PrecipitationIn,Events,Conditions,WindDirDegrees,DateUTC
12:54 AM,57.9,44.1,60,29.94,10.0,NW,3.5,-,N/A,,Partly Cloudy,320,2014-05-04 05:54:00
1:54 AM,55.9,44.1,64,29.94,10.0,WNW,3.5,-,N/A,,Clear,290,2014-05-04 06:54:00
2:54 AM,53.1,44.1,71,29.94,10.0,Calm,Calm,-,N/A,,Clear,0,2014-05-04 07:54:00
3:54 AM,50.0,43.0,77,29.94,10.0,Calm,Calm,-,N/A,,Clear,0,2014-05-04 08:54:00
4:54 AM,52.0,42.1,69,29.95,10.0,North,6.9,-,N/A,,Clear,10,2014-05-04 09:54:00
5:54 AM,52.0,39.9,63,29.98,10.0,Calm,Calm,-,N/A,,Clear,0,2014-05-04 10:54:00
6:54 AM,48.0,41.0,77,30.01,10.0,SW,3.5,-,N/A,,Clear,230,2014-05-04 11:54:00
7:54 AM,55.0,39.9,57,30.03,10.0,NNE,5.8,-,N/A,,Clear,30,2014-05-04 12:54:00
8:54 AM,57.9,37.0,46,30.04,10.0,North,8.1,-,N/A,,Clear,10,2014-05-04 13:54:00
9:54 AM,60.1,37.0,42,30.05,10.0,NE,10.4,-,N/A,,Clear,50,2014-05-04 14:54:00
10:54 AM,61.0,36.0,39,30.05,10.0,East,5.8,-,N/A,,Clear,80,2014-05-04 15:54:00
11:54 AM,63.0,37.0,38,30.05,10.0,NE,10.4,-,N/A,,Partly Cloudy,50,2014-05-04 16:54:00
12:54 PM,64.0,37.9,38,30.02,10.0,ENE,12.7,-,N/A,,Clear,70,2014-05-04 17:54:00
1:54 PM,64.0,39.0,40,30.01,10.0,NE,11.5,-,N/A,,Clear,50,2014-05-04 18:54:00
2:54 PM,64.9,39.0,39,29.98,10.0,East,11.5,-,N/A,,Clear,90,2014-05-04 19:54:00
3:54 PM,66.9,39.9,37,29.98,10.0,East,10.4,-,N/A,,Clear,100,2014-05-04 20:54:00
4:54 PM,66.0,37.9,36,29.97,10.0,NE,13.8,20.7,N/A,,Clear,40,2014-05-04 21:54:00
5:54 PM,64.0,36.0,35,29.99,10.0,ENE,15.0,-,N/A,,Clear,60,2014-05-04 22:54:00
6:54 PM,63.0,35.1,35,29.98,10.0,ENE,12.7,-,N/A,,Clear,60,2014-05-04 23:54:00
7:54 PM,62.1,34.0,35,29.96,10.0,ENE,11.5,20.7,N/A,,Clear,60,2014-05-05 00:54:00
8:54 PM,57.9,30.0,35,29.99,10.0,East,17.3,25.3,N/A,,Clear,90,2014-05-05 01:54:00
9:54 PM,55.0,24.1,30,30.00,10.0,East,17.3,26.5,N/A,,Clear,80,2014-05-05 02:54:00
10:54 PM,54.0,23.0,30,29.97,10.0,East,20.7,32.2,N/A,,Clear,90,2014-05-05 03:54:00
11:54 PM,54.0,19.0,25,30.00,10.0,ENE,16.1,-,N/A,,Clear,70,2014-05-05 04:54:00